createdAt,value
2018-01-04T00:00:05.639Z,20.28
2018-01-04T00:02:33.176Z,20.29
2018-01-04T00:05:00.811Z,20.29
2018-01-04T00:07:28.348Z,20.30
2018-01-04T00:09:55.879Z,20.32
2018-01-04T00:12:23.474Z,20.31
2018-01-04T00:14:51.003Z,20.31
2018-01-04T00:17:18.601Z,20.29
2018-01-04T00:19:46.142Z,20.29
2018-01-04T00:22:13.708Z,20.27
2018-01-04T00:24:41.300Z,20.26
2018-01-04T00:27:08.851Z,20.24
2018-01-04T00:29:36.474Z,20.24
2018-01-04T00:32:04.149Z,20.24
2018-01-04T00:34:31.772Z,20.24
2018-01-04T00:36:59.299Z,20.25
2018-01-04T00:39:26.827Z,20.26
2018-01-04T00:41:54.417Z,20.27
2018-01-04T00:44:22.024Z,20.27
2018-01-04T00:46:49.548Z,20.28
2018-01-04T00:49:17.098Z,20.29
2018-01-04T00:51:44.696Z,20.30
2018-01-04T00:54:12.317Z,20.32
2018-01-04T00:56:39.921Z,20.32
2018-01-04T00:59:07.518Z,20.32
2018-01-04T01:01:35.052Z,20.30
2018-01-04T01:04:02.605Z,20.28
2018-01-04T01:06:30.175Z,20.26
2018-01-04T01:08:57.706Z,20.24
2018-01-04T01:11:25.231Z,20.22
2018-01-04T01:13:52.824Z,20.22
2018-01-04T01:16:20.421Z,20.22
2018-01-04T01:18:47.957Z,20.21
2018-01-04T01:21:15.494Z,20.22
2018-01-04T01:23:43.103Z,20.23
2018-01-04T01:26:10.693Z,20.24
2018-01-04T01:28:38.227Z,20.25
2018-01-04T01:31:05.757Z,20.26
2018-01-04T01:33:33.356Z,20.27
2018-01-04T01:36:00.968Z,20.28
2018-01-04T01:38:28.576Z,20.29
2018-01-04T01:40:56.139Z,20.28
2018-01-04T01:43:23.668Z,20.28
2018-01-04T01:45:51.204Z,20.26
2018-01-04T01:48:18.801Z,20.26
2018-01-04T01:50:46.397Z,20.24
2018-01-04T01:53:13.961Z,20.21
2018-01-04T01:55:41.484Z,20.20
2018-01-04T01:58:09.095Z,20.21
2018-01-04T02:00:36.630Z,20.22
2018-01-04T02:03:04.167Z,20.22
2018-01-04T02:05:31.698Z,20.24
2018-01-04T02:07:59.230Z,20.25
2018-01-04T02:10:26.799Z,20.28
2018-01-04T02:12:54.389Z,20.28
2018-01-04T02:15:21.917Z,20.29
2018-01-04T02:17:49.557Z,20.29
2018-01-04T02:20:29.028Z,20.29
2018-01-04T02:23:08.525Z,20.29
2018-01-04T02:25:47.818Z,20.27
2018-01-04T02:28:27.086Z,20.26
2018-01-04T02:31:06.354Z,20.24
2018-01-04T02:33:45.920Z,20.23
2018-01-04T02:36:25.193Z,20.19
2018-01-04T02:42:06.424Z,20.16
2018-01-04T02:44:40.028Z,20.14
2018-01-04T02:47:07.553Z,20.13
2018-01-04T02:49:35.104Z,20.14
2018-01-04T02:52:02.625Z,20.15
2018-01-04T02:54:30.247Z,20.16
2018-01-04T02:56:57.883Z,20.17
2018-01-04T02:59:25.473Z,20.18
2018-01-04T03:01:53.072Z,20.18
2018-01-04T03:04:20.673Z,20.21
2018-01-04T03:06:48.286Z,20.21
2018-01-04T03:09:15.810Z,20.23
2018-01-04T03:11:43.330Z,20.23
2018-01-04T03:14:10.907Z,20.23
2018-01-04T03:16:38.500Z,20.21
2018-01-04T03:19:06.097Z,20.20
2018-01-04T03:21:33.622Z,20.19
2018-01-04T03:24:01.155Z,20.17
2018-01-04T03:26:34.194Z,20.15
2018-01-04T03:29:07.315Z,20.14
2018-01-04T03:31:40.531Z,20.13
2018-01-04T03:34:13.694Z,20.12
2018-01-04T03:36:46.651Z,20.11
2018-01-04T03:39:19.649Z,20.11
2018-01-04T03:44:53.544Z,20.12
2018-01-04T03:47:26.734Z,20.12
2018-01-04T03:49:59.795Z,20.14
2018-01-04T03:52:32.233Z,20.16
2018-01-04T03:55:05.243Z,20.19
2018-01-04T03:57:38.493Z,20.17
2018-01-04T04:00:11.720Z,20.18
2018-01-04T04:02:44.823Z,20.16
2018-01-04T04:05:17.888Z,20.16
2018-01-04T04:07:45.442Z,20.17
2018-01-04T04:10:12.967Z,20.17
2018-01-04T04:12:40.482Z,20.17
2018-01-04T04:15:08.105Z,20.18
2018-01-04T04:17:35.630Z,20.20
2018-01-04T04:20:03.197Z,20.20
2018-01-04T04:22:30.731Z,20.21
2018-01-04T04:24:58.254Z,20.24
2018-01-04T04:27:25.782Z,20.25
2018-01-04T04:29:53.316Z,20.25
2018-01-04T04:32:20.907Z,20.24
2018-01-04T04:34:48.427Z,20.25
2018-01-04T04:37:16.022Z,20.22
2018-01-04T04:39:43.548Z,20.25
2018-01-04T04:42:11.076Z,20.24
2018-01-04T04:44:38.648Z,20.25
2018-01-04T04:47:06.245Z,20.25
2018-01-04T04:49:33.829Z,20.29
2018-01-04T04:52:01.381Z,20.33
2018-01-04T04:54:28.976Z,20.35
2018-01-04T04:56:56.569Z,20.37
2018-01-04T04:59:24.162Z,20.37
2018-01-04T05:01:51.753Z,20.36
2018-01-04T05:04:19.339Z,20.32
2018-01-04T05:06:46.867Z,20.28
2018-01-04T05:09:14.420Z,20.25
2018-01-04T05:11:42.022Z,20.22
2018-01-04T05:14:09.546Z,20.21
2018-01-04T05:16:37.147Z,20.20
2018-01-04T05:19:04.820Z,20.20
2018-01-04T05:21:32.414Z,20.18
2018-01-04T05:24:00.007Z,20.19
2018-01-04T05:26:27.600Z,20.21
2018-01-04T05:28:55.123Z,20.21
2018-01-04T05:31:22.709Z,20.23
2018-01-04T05:33:50.308Z,20.24
2018-01-04T05:36:17.917Z,20.25
2018-01-04T05:38:45.446Z,20.25
2018-01-04T05:41:13.041Z,20.25
2018-01-04T05:43:40.638Z,20.22
2018-01-04T05:46:08.233Z,20.21
2018-01-04T05:48:35.755Z,20.20
2018-01-04T05:51:03.346Z,20.18
2018-01-04T05:53:30.941Z,20.18
2018-01-04T05:55:58.460Z,20.18
2018-01-04T05:58:25.980Z,20.19
2018-01-04T06:00:53.498Z,20.20
2018-01-04T06:03:21.052Z,20.20
2018-01-04T06:05:48.643Z,20.19
2018-01-04T06:08:16.163Z,20.19
2018-01-04T06:10:43.750Z,20.20
2018-01-04T06:13:11.341Z,20.21
2018-01-04T06:15:38.870Z,20.22
2018-01-04T06:18:06.467Z,20.23
2018-01-04T06:20:34.021Z,20.23
2018-01-04T06:23:01.608Z,20.21
2018-01-04T06:25:29.136Z,20.20
2018-01-04T06:27:56.725Z,20.18
2018-01-04T06:30:24.320Z,20.16
2018-01-04T06:32:51.914Z,20.13
2018-01-04T06:35:19.430Z,20.11
2018-01-04T06:37:46.985Z,20.10
2018-01-04T06:40:14.510Z,20.09
2018-01-04T06:42:42.096Z,20.08
2018-01-04T06:45:09.693Z,20.08
2018-01-04T06:47:37.276Z,20.10
2018-01-04T06:50:04.859Z,20.11
2018-01-04T06:52:32.379Z,20.13
2018-01-04T06:55:00.002Z,20.15
2018-01-04T06:57:27.596Z,20.15
2018-01-04T06:59:55.176Z,20.18
2018-01-04T07:02:22.760Z,20.18
2018-01-04T07:04:50.350Z,20.18
2018-01-04T07:07:17.875Z,20.19
2018-01-04T07:09:45.460Z,20.18
2018-01-04T07:12:12.983Z,20.17
2018-01-04T07:14:40.581Z,20.16
2018-01-04T07:17:08.173Z,20.14
2018-01-04T07:19:35.701Z,20.09
2018-01-04T07:22:03.254Z,20.09
2018-01-04T07:24:30.775Z,20.06
2018-01-04T07:26:58.373Z,20.04
2018-01-04T07:29:25.891Z,20.04
2018-01-04T07:31:53.416Z,20.05
2018-01-04T07:34:21.000Z,20.06
2018-01-04T07:36:48.520Z,20.07
2018-01-04T07:39:16.075Z,20.08
2018-01-04T07:41:43.600Z,20.09
2018-01-04T07:44:11.185Z,20.10
2018-01-04T07:46:38.712Z,20.12
2018-01-04T07:49:06.312Z,20.12
2018-01-04T07:51:33.908Z,20.13
2018-01-04T07:54:01.497Z,20.15
2018-01-04T07:56:29.108Z,20.17
2018-01-04T07:58:56.627Z,20.15
2018-01-04T08:01:24.221Z,20.15
2018-01-04T08:03:51.747Z,20.12
2018-01-04T08:06:19.272Z,20.10
2018-01-04T08:08:46.865Z,20.08
2018-01-04T08:11:14.383Z,20.08
2018-01-04T08:13:42.013Z,20.08
2018-01-04T08:16:09.600Z,20.08
2018-01-04T08:18:37.193Z,20.10
2018-01-04T08:21:04.706Z,20.11
2018-01-04T08:23:32.228Z,20.10
2018-01-04T08:25:59.861Z,20.14
2018-01-04T08:28:27.449Z,20.15
2018-01-04T08:30:54.963Z,20.17
2018-01-04T08:33:22.478Z,20.16
2018-01-04T08:35:50.074Z,20.16
2018-01-04T08:38:17.666Z,20.14
2018-01-04T08:40:45.184Z,20.12
2018-01-04T08:43:12.800Z,20.11
2018-01-04T08:45:40.409Z,20.09
2018-01-04T08:48:07.997Z,20.09
2018-01-04T08:50:35.590Z,20.08
2018-01-04T08:53:03.111Z,20.09
2018-01-04T08:55:30.702Z,20.11
2018-01-04T08:57:58.285Z,20.12
2018-01-04T09:00:25.918Z,20.14
2018-01-04T09:02:53.503Z,20.15
2018-01-04T09:05:21.023Z,20.13
2018-01-04T09:07:48.609Z,20.13
2018-01-04T09:10:16.128Z,20.12
2018-01-04T09:12:43.714Z,20.12
2018-01-04T09:15:11.293Z,20.11
2018-01-04T09:17:38.816Z,20.14
2018-01-04T09:20:06.401Z,20.14
2018-01-04T09:22:33.918Z,20.16
2018-01-04T09:25:01.505Z,20.17
2018-01-04T09:27:29.020Z,20.19
2018-01-04T09:29:56.633Z,20.20
2018-01-04T09:32:24.147Z,20.20
2018-01-04T09:34:51.777Z,20.18
2018-01-04T09:37:19.300Z,20.17
2018-01-04T09:39:46.814Z,20.15
2018-01-04T09:42:14.408Z,20.16
2018-01-04T09:44:43.057Z,20.17
2018-01-04T09:47:10.679Z,20.18
2018-01-04T09:49:38.200Z,20.19
2018-01-04T09:52:05.792Z,20.18
2018-01-04T09:54:33.372Z,20.17
2018-01-04T09:57:00.901Z,20.16
2018-01-04T09:59:28.415Z,20.14
2018-01-04T10:01:55.938Z,20.12
2018-01-04T10:04:23.557Z,20.11
2018-01-04T10:06:51.140Z,20.10
2018-01-04T10:09:18.655Z,20.10
2018-01-04T10:11:46.237Z,20.12
2018-01-04T10:14:13.752Z,20.14
2018-01-04T10:16:41.271Z,20.12
2018-01-04T10:19:08.860Z,20.13
2018-01-04T10:21:36.375Z,20.11
2018-01-04T10:24:03.961Z,20.11
2018-01-04T10:26:31.477Z,20.10
2018-01-04T10:28:58.995Z,20.10
2018-01-04T10:31:26.543Z,20.11
2018-01-04T10:33:54.065Z,20.13
2018-01-04T10:36:21.587Z,20.14
2018-01-04T10:38:49.175Z,20.13
2018-01-04T10:41:16.756Z,20.14
2018-01-04T10:43:44.336Z,20.11
2018-01-04T10:46:11.924Z,20.11
2018-01-04T10:48:39.541Z,20.10
2018-01-04T10:51:07.055Z,20.11
2018-01-04T10:53:34.644Z,20.11
2018-01-04T10:56:02.164Z,20.12
2018-01-04T10:58:29.681Z,20.14
2018-01-04T11:00:57.268Z,20.15
2018-01-04T11:03:24.849Z,20.14
2018-01-04T11:05:52.393Z,20.13
2018-01-04T11:08:19.993Z,20.11
2018-01-04T11:10:47.511Z,20.08
2018-01-04T11:13:15.092Z,20.08
2018-01-04T11:15:42.623Z,20.11
2018-01-04T11:18:10.139Z,20.12
2018-01-04T11:20:37.727Z,20.09
2018-01-04T11:23:05.281Z,20.18
2018-01-04T11:25:32.885Z,20.18
2018-01-04T11:28:00.545Z,20.21
2018-01-04T11:30:28.091Z,20.21
2018-01-04T11:32:55.616Z,20.22
2018-01-04T11:35:23.249Z,20.22
2018-01-04T11:37:50.776Z,20.22
2018-01-04T11:40:18.315Z,20.23
2018-01-04T11:42:45.910Z,20.22
2018-01-04T11:45:13.641Z,20.21
2018-01-04T11:47:41.175Z,20.21
2018-01-04T11:50:08.776Z,20.21
2018-01-04T11:52:36.487Z,20.23
2018-01-04T11:55:04.037Z,20.25
2018-01-04T11:57:31.560Z,20.23
2018-01-04T11:59:59.132Z,20.23
2018-01-04T12:02:26.668Z,20.22
2018-01-04T12:04:54.336Z,20.23
2018-01-04T12:07:21.886Z,20.22
2018-01-04T12:09:49.546Z,20.23
2018-01-04T12:12:17.146Z,20.24
2018-01-04T12:14:44.688Z,20.26
2018-01-04T12:17:12.293Z,20.28
2018-01-04T12:19:39.816Z,20.29
2018-01-04T12:22:13.678Z,20.31
2018-01-04T12:24:41.194Z,20.30
2018-01-04T12:27:08.744Z,20.32
2018-01-04T12:29:36.373Z,20.33
2018-01-04T12:32:06.499Z,20.29
2018-01-04T12:34:34.130Z,20.31
2018-01-04T12:37:01.824Z,20.30
2018-01-04T12:39:29.407Z,20.32
2018-01-04T12:41:56.923Z,20.32
2018-01-04T12:44:24.440Z,20.33
2018-01-04T12:46:52.067Z,20.33
2018-01-04T12:49:19.592Z,20.33
2018-01-04T12:51:47.220Z,20.33
2018-01-04T12:54:14.859Z,20.33
2018-01-04T12:56:42.383Z,20.33
2018-01-04T12:59:09.948Z,20.35
2018-01-04T13:01:37.532Z,20.35
2018-01-04T13:04:05.128Z,20.36
2018-01-04T13:06:32.835Z,20.36
2018-01-04T13:09:00.469Z,20.37
2018-01-04T13:11:28.061Z,20.37
2018-01-04T13:13:55.603Z,20.35
2018-01-04T13:16:23.135Z,20.33
2018-01-04T13:18:50.662Z,20.34
2018-01-04T13:21:18.188Z,20.33
2018-01-04T13:23:45.774Z,20.32
2018-01-04T13:26:13.410Z,20.34
2018-01-04T13:28:41.043Z,20.37
2018-01-04T13:31:08.702Z,20.38
2018-01-04T13:33:36.282Z,20.33
2018-01-04T13:36:03.898Z,20.29
2018-01-04T13:38:31.580Z,20.26
2018-01-04T13:40:59.111Z,20.22
2018-01-04T13:43:26.743Z,20.19
2018-01-04T13:45:54.332Z,20.18
2018-01-04T13:48:21.847Z,20.16
2018-01-04T13:53:19.697Z,20.10
2018-01-04T13:55:47.304Z,20.10
2018-01-04T13:58:14.843Z,20.08
2018-01-04T14:00:42.445Z,20.08
2018-01-04T14:03:10.064Z,20.07
2018-01-04T14:05:37.661Z,20.07
2018-01-04T14:08:05.289Z,20.05
2018-01-04T14:10:32.820Z,20.04
2018-01-04T14:13:00.348Z,20.04
2018-01-04T14:15:27.933Z,20.07
2018-01-04T14:17:55.534Z,20.09
2018-01-04T14:20:23.162Z,20.11
2018-01-04T14:22:50.787Z,20.15
2018-01-04T14:25:18.375Z,20.20
2018-01-04T14:27:45.892Z,20.22
2018-01-04T14:30:13.489Z,20.22
2018-01-04T14:32:41.070Z,20.23
2018-01-04T14:35:08.654Z,20.25
2018-01-04T14:37:36.274Z,20.28
2018-01-04T14:40:03.812Z,20.29
2018-01-04T14:42:31.440Z,20.28
2018-01-04T14:44:58.961Z,20.26
2018-01-04T14:47:26.557Z,20.26
2018-01-04T14:49:54.075Z,20.22
2018-01-04T14:52:21.615Z,20.18
2018-01-04T14:54:49.172Z,20.14
2018-01-04T14:57:16.773Z,20.11
2018-01-04T14:59:44.361Z,20.07
2018-01-04T15:02:11.950Z,20.07
2018-01-04T15:04:39.466Z,20.07
2018-01-04T15:07:07.016Z,20.05
2018-01-04T15:09:34.531Z,20.05
2018-01-04T15:12:02.069Z,20.05
2018-01-04T15:14:29.599Z,20.05
2018-01-04T15:16:57.259Z,20.04
2018-01-04T15:19:24.806Z,20.03
2018-01-04T15:21:52.398Z,20.02
2018-01-04T15:24:19.957Z,20.02
2018-01-04T15:26:47.538Z,20.01
2018-01-04T15:29:15.131Z,20.01
2018-01-04T15:31:42.644Z,20.01
2018-01-04T15:34:10.163Z,20.01
2018-01-04T15:36:37.718Z,19.99
2018-01-04T15:39:05.257Z,19.98
2018-01-04T15:41:32.881Z,19.97
2018-01-04T15:44:00.403Z,19.96
2018-01-04T15:46:27.917Z,19.95
2018-01-04T15:48:55.433Z,19.94
2018-01-04T15:51:23.030Z,19.94
2018-01-04T15:53:50.547Z,19.93
2018-01-04T15:56:18.136Z,19.92
2018-01-04T15:58:45.664Z,19.91
2018-01-04T16:01:13.253Z,19.92
2018-01-04T16:03:40.837Z,19.91
2018-01-04T16:06:08.363Z,19.90
2018-01-04T16:08:35.883Z,19.90
2018-01-04T16:11:03.466Z,19.88
2018-01-04T16:13:31.092Z,19.89
2018-01-04T16:15:58.681Z,19.89
2018-01-04T16:18:26.195Z,19.88
2018-01-04T16:20:53.786Z,19.89
2018-01-04T16:23:21.318Z,19.89
2018-01-04T16:25:48.929Z,19.91
2018-01-04T16:28:16.549Z,19.93
2018-01-04T16:30:44.143Z,19.93
2018-01-04T16:33:11.670Z,19.93
2018-01-04T16:35:39.260Z,19.93
2018-01-04T16:38:06.859Z,19.94
2018-01-04T16:40:34.379Z,19.96
2018-01-04T16:43:01.948Z,19.96
2018-01-04T16:45:29.484Z,19.96
2018-01-04T16:47:57.004Z,19.95
2018-01-04T16:50:24.593Z,19.94
2018-01-04T16:52:52.177Z,19.95
2018-01-04T16:55:19.691Z,19.97
2018-01-04T16:57:47.285Z,19.95
2018-01-04T17:00:14.908Z,20.05
2018-01-04T17:02:42.433Z,20.21
2018-01-04T17:05:09.959Z,20.28
2018-01-04T17:07:37.480Z,20.29
2018-01-04T17:10:05.104Z,20.33
2018-01-04T17:12:32.639Z,20.34
2018-01-04T17:15:00.251Z,20.33
2018-01-04T17:17:27.836Z,20.32
2018-01-04T17:19:55.369Z,20.28
2018-01-04T17:22:23.001Z,20.26
2018-01-04T17:24:50.610Z,20.25
2018-01-04T17:27:18.205Z,20.23
2018-01-04T17:29:45.768Z,20.21
2018-01-04T17:32:13.385Z,20.21
2018-01-04T17:34:40.916Z,20.31
2018-01-04T17:37:08.589Z,20.39
2018-01-04T17:39:36.197Z,20.48
2018-01-04T17:42:03.731Z,20.55
2018-01-04T17:44:31.317Z,20.57
2018-01-04T17:46:58.941Z,20.57
2018-01-04T17:49:26.503Z,20.61
2018-01-04T17:51:54.109Z,20.65
2018-01-04T17:54:21.728Z,20.71
2018-01-04T17:56:49.358Z,20.76
2018-01-04T17:59:16.877Z,20.76
2018-01-04T18:01:44.464Z,20.79
2018-01-04T18:04:11.982Z,20.80
2018-01-04T18:06:39.503Z,20.81
2018-01-04T18:09:07.035Z,20.82
2018-01-04T18:11:34.592Z,20.83
2018-01-04T18:14:02.199Z,20.87
2018-01-04T18:16:29.775Z,20.85
2018-01-04T18:18:57.343Z,20.87
2018-01-04T18:21:26.380Z,20.91
2018-01-04T18:23:54.206Z,20.94
2018-01-04T18:26:21.821Z,20.93
2018-01-04T18:28:49.362Z,20.92
2018-01-04T18:31:17.137Z,20.92
2018-01-04T18:33:44.740Z,20.91
2018-01-04T18:36:12.311Z,20.93
2018-01-04T18:38:39.851Z,20.96
2018-01-04T18:41:07.481Z,20.98
2018-01-04T18:43:35.025Z,20.97
2018-01-04T18:46:02.634Z,20.98
2018-01-04T18:48:30.253Z,20.99
2018-01-04T18:50:57.770Z,20.97
2018-01-04T18:53:25.378Z,20.95
2018-01-04T18:55:52.996Z,20.95
2018-01-04T18:58:20.602Z,20.94
2018-01-04T19:00:48.129Z,20.95
2018-01-04T19:03:15.768Z,20.93
2018-01-04T19:05:43.429Z,20.93
2018-01-04T19:08:11.209Z,20.96
2018-01-04T19:10:38.734Z,20.97
2018-01-04T19:13:06.273Z,20.97
2018-01-04T19:15:33.908Z,20.96
2018-01-04T19:18:01.427Z,20.91
2018-01-04T19:20:28.955Z,20.91
2018-01-04T19:22:56.527Z,20.88
2018-01-04T19:25:24.122Z,20.87
2018-01-04T19:27:51.647Z,20.89
2018-01-04T19:30:19.167Z,20.90
2018-01-04T19:32:46.764Z,20.90
2018-01-04T19:35:14.321Z,20.91
2018-01-04T19:37:41.996Z,20.92
2018-01-04T19:40:09.555Z,20.92
2018-01-04T19:42:37.094Z,20.91
2018-01-04T19:45:04.632Z,20.90
2018-01-04T19:47:32.159Z,20.90
2018-01-04T19:49:59.711Z,20.90
2018-01-04T19:52:27.350Z,20.89
2018-01-04T19:54:54.961Z,20.88
2018-01-04T19:57:22.495Z,20.89
2018-01-04T19:59:50.033Z,20.87
2018-01-04T20:02:17.559Z,20.88
2018-01-04T20:04:45.230Z,20.84
2018-01-04T20:07:12.792Z,20.79
2018-01-04T20:09:40.384Z,20.73
2018-01-04T20:12:07.960Z,20.70
2018-01-04T20:14:35.548Z,20.65
2018-01-04T20:17:03.096Z,20.65
2018-01-04T20:19:30.623Z,20.66
2018-01-04T20:21:58.176Z,20.67
2018-01-04T20:24:25.749Z,20.66
2018-01-04T20:26:53.320Z,20.67
2018-01-04T20:29:20.846Z,20.68
2018-01-04T20:31:48.383Z,20.66
2018-01-04T20:34:15.943Z,20.64
2018-01-04T20:36:43.532Z,20.65
2018-01-04T20:39:11.213Z,20.61
2018-01-04T20:41:38.855Z,20.65
2018-01-04T20:44:06.457Z,20.68
2018-01-04T20:46:33.987Z,20.65
2018-01-04T20:49:01.540Z,20.65
2018-01-04T20:51:29.175Z,20.63
2018-01-04T20:53:56.714Z,20.67
2018-01-04T20:56:24.317Z,20.70
2018-01-04T20:58:51.924Z,20.73
2018-01-04T21:01:19.514Z,20.75
2018-01-04T21:03:47.039Z,20.77
2018-01-04T21:06:14.569Z,20.78
2018-01-04T21:08:42.170Z,20.78
2018-01-04T21:11:09.765Z,20.77
2018-01-04T21:13:37.381Z,20.78
2018-01-04T21:16:04.918Z,20.78
2018-01-04T21:18:32.440Z,20.78
2018-01-04T21:21:00.014Z,20.77
2018-01-04T21:23:27.536Z,20.78
2018-01-04T21:25:55.134Z,20.79
2018-01-04T21:28:22.663Z,20.79
2018-01-04T21:30:50.219Z,20.80
2018-01-04T21:33:17.808Z,20.80
2018-01-04T21:35:45.406Z,20.81
2018-01-04T21:38:13.029Z,20.81
2018-01-04T21:40:40.629Z,20.79
2018-01-04T21:43:08.219Z,20.78
2018-01-04T21:45:35.751Z,20.78
2018-01-04T21:48:03.279Z,20.78
2018-01-04T21:50:30.859Z,20.77
2018-01-04T21:52:58.384Z,20.78
2018-01-04T21:55:25.911Z,20.78
2018-01-04T21:57:53.427Z,20.81
2018-01-04T22:00:20.960Z,20.81
2018-01-04T22:02:48.563Z,20.81
2018-01-04T22:05:16.082Z,20.81
2018-01-04T22:07:43.709Z,20.80
2018-01-04T22:10:11.306Z,20.80
2018-01-04T22:12:38.835Z,20.80
2018-01-04T22:15:06.399Z,20.78
2018-01-04T22:17:33.993Z,20.78
2018-01-04T22:20:01.585Z,20.76
2018-01-04T22:22:29.112Z,20.77
2018-01-04T22:24:56.648Z,20.75
2018-01-04T22:27:24.169Z,20.74
2018-01-04T22:29:51.774Z,20.73
2018-01-04T22:32:19.370Z,20.72
2018-01-04T22:34:46.978Z,20.72
2018-01-04T22:37:14.570Z,20.71
2018-01-04T22:39:42.165Z,20.70
2018-01-04T22:42:09.756Z,20.69
2018-01-04T22:44:37.362Z,20.71
2018-01-04T22:47:04.915Z,20.70
2018-01-04T22:49:32.568Z,20.67
2018-01-04T22:52:00.164Z,20.66
2018-01-04T22:54:27.782Z,20.64
2018-01-04T22:56:55.337Z,20.63
2018-01-04T22:59:22.873Z,20.61
2018-01-04T23:01:50.433Z,20.60
2018-01-04T23:04:18.062Z,20.59
2018-01-04T23:06:45.644Z,20.59
2018-01-04T23:09:13.168Z,20.58
2018-01-04T23:11:40.691Z,20.58
2018-01-04T23:14:08.308Z,20.59
2018-01-04T23:16:35.946Z,20.58
2018-01-04T23:19:03.470Z,20.59
2018-01-04T23:21:31.064Z,20.59
2018-01-04T23:23:58.690Z,20.60
2018-01-04T23:26:26.300Z,20.57
2018-01-04T23:28:53.822Z,20.55
2018-01-04T23:31:21.428Z,20.51
2018-01-04T23:33:49.049Z,20.48
2018-01-04T23:36:16.658Z,20.45
2018-01-04T23:38:44.183Z,20.43
2018-01-04T23:41:11.704Z,20.43
2018-01-04T23:43:39.223Z,20.43
2018-01-04T23:46:06.747Z,20.44
2018-01-04T23:48:34.350Z,20.43
2018-01-04T23:51:01.877Z,20.43
2018-01-04T23:53:29.402Z,20.43
2018-01-04T23:55:56.989Z,20.43
2018-01-04T23:58:24.507Z,20.43
